createdAt,value
2018-06-25T00:00:40.166Z,3.40
2018-06-25T00:03:11.655Z,3.10
2018-06-25T00:05:41.938Z,3.43
2018-06-25T00:08:12.354Z,3.33
2018-06-25T00:13:42.227Z,2.80
2018-06-25T00:16:12.783Z,3.07
2018-06-25T00:25:09.790Z,2.80
2018-06-25T00:27:42.295Z,2.73
2018-06-25T00:30:13.302Z,2.80
2018-06-25T00:32:43.320Z,2.53
2018-06-25T00:35:12.493Z,2.90
2018-06-25T00:37:41.611Z,3.00
2018-06-25T00:40:13.304Z,2.77
2018-06-25T00:42:42.745Z,2.80
2018-06-25T00:45:12.250Z,2.90
2018-06-25T00:47:42.158Z,3.23
2018-06-25T00:50:13.239Z,3.30
2018-06-25T00:52:42.801Z,3.40
2018-06-25T00:55:12.189Z,3.60
2018-06-25T00:57:43.095Z,3.40
2018-06-25T01:00:11.851Z,3.00
2018-06-25T01:02:42.935Z,3.33
2018-06-25T01:05:11.906Z,3.70
2018-06-25T01:07:43.056Z,3.13
2018-06-25T01:10:11.692Z,3.53
2018-06-25T01:12:43.591Z,3.40
2018-06-25T01:15:11.648Z,3.30
2018-06-25T01:20:41.096Z,3.60
2018-06-25T01:23:12.178Z,3.10
2018-06-25T01:25:41.601Z,3.30
2018-06-25T01:28:13.386Z,3.67
2018-06-25T01:30:42.128Z,3.97
2018-06-25T01:33:11.614Z,3.97
2018-06-25T01:35:43.012Z,3.93
2018-06-25T01:38:11.436Z,3.77
2018-06-25T01:40:45.247Z,4.00
2018-06-25T01:54:14.779Z,4.00
2018-06-25T01:56:43.051Z,3.70
2018-06-25T01:59:16.535Z,4.67
2018-06-25T02:01:45.387Z,5.33
2018-06-25T02:04:14.049Z,5.27
2018-06-25T02:06:42.091Z,4.60
2018-06-25T02:09:12.936Z,5.30
2018-06-25T02:11:41.578Z,4.97
2018-06-25T02:14:13.660Z,5.50
2018-06-25T02:16:41.551Z,5.20
2018-06-25T02:19:13.482Z,4.90
2018-06-25T02:21:41.919Z,5.33
2018-06-25T02:27:12.548Z,5.40
2018-06-25T02:29:42.233Z,6.40
2018-06-25T02:32:11.983Z,5.83
2018-06-25T02:34:43.331Z,5.53
2018-06-25T02:37:12.641Z,5.97
2018-06-25T02:39:41.602Z,5.50
2018-06-25T02:42:13.423Z,6.00
2018-06-25T02:44:41.630Z,5.90
2018-06-25T02:47:13.227Z,6.07
2018-06-25T02:49:41.852Z,6.00
2018-06-25T02:55:12.945Z,6.20
2018-06-25T02:58:11.736Z,6.70
2018-06-25T03:00:44.387Z,6.20
2018-06-25T03:03:12.356Z,6.10
2018-06-25T03:05:42.105Z,6.67
2018-06-25T03:08:11.637Z,6.80
2018-06-25T03:10:42.669Z,6.40
2018-06-25T03:16:13.279Z,6.20
2018-06-25T03:21:45.616Z,6.93
2018-06-25T03:27:39.765Z,6.57
2018-06-25T03:30:13.476Z,7.10
2018-06-25T03:32:42.199Z,7.40
2018-06-25T03:35:11.728Z,7.77
2018-06-25T03:37:41.636Z,6.20
2018-06-25T03:43:12.427Z,6.60
2018-06-25T03:45:42.557Z,8.20
2018-06-25T03:48:12.196Z,6.40
2018-06-25T03:53:43.407Z,7.20
2018-06-25T03:56:12.325Z,7.10
2018-06-25T03:58:45.752Z,9.07
2018-06-25T04:01:16.812Z,7.27
2018-06-25T04:21:11.074Z,7.53
2018-06-25T04:26:42.633Z,9.20
2018-06-25T04:29:12.245Z,7.90
2018-06-25T04:31:41.832Z,7.23
2018-06-25T04:34:13.837Z,8.17
2018-06-25T04:36:42.107Z,7.83
2018-06-25T04:42:12.939Z,7.33
2018-06-25T04:50:47.348Z,8.30
2018-06-25T04:53:15.285Z,8.53
2018-06-25T04:55:43.466Z,9.70
2018-06-25T04:58:11.753Z,8.37
2018-06-25T05:03:42.881Z,9.17
2018-06-25T05:06:10.741Z,8.90
2018-06-25T05:08:42.934Z,8.50
2018-06-25T05:11:12.298Z,8.17
2018-06-25T05:13:41.025Z,8.00
2018-06-25T05:16:12.840Z,7.30
2018-06-25T05:18:42.406Z,7.10
2018-06-25T05:21:14.905Z,5.90
2018-06-25T05:23:42.875Z,6.43
2018-06-25T05:29:15.669Z,6.07
2018-06-25T05:31:43.697Z,5.70
2018-06-25T05:34:11.492Z,5.30
2018-06-25T05:36:40.656Z,5.73
2018-06-25T05:39:11.053Z,5.70
2018-06-25T05:41:40.575Z,5.77
2018-06-25T05:44:12.838Z,6.50
2018-06-25T05:46:41.672Z,4.77
2018-06-25T05:49:10.455Z,5.00
2018-06-25T05:51:39.184Z,5.23
2018-06-25T05:54:07.088Z,4.90
2018-06-25T05:56:35.770Z,4.73
2018-06-25T05:59:03.645Z,5.10
2018-06-25T06:01:45.676Z,4.33
2018-06-25T06:10:02.913Z,4.53
2018-06-25T06:12:31.369Z,3.90
2018-06-25T06:15:00.479Z,4.30
2018-06-25T06:17:32.034Z,3.27
2018-06-25T06:19:59.805Z,3.13
2018-06-25T06:22:28.806Z,3.23
2018-06-25T06:24:58.325Z,3.17
2018-06-25T06:27:27.236Z,3.73
2018-06-25T06:29:57.900Z,3.67
2018-06-25T06:32:25.859Z,3.40
2018-06-25T06:34:53.693Z,3.27
2018-06-25T06:37:22.653Z,3.10
2018-06-25T06:39:54.891Z,3.43
2018-06-25T06:45:28.572Z,2.93
2018-06-25T06:47:57.683Z,3.60
2018-06-25T06:50:27.456Z,3.60
2018-06-25T06:52:55.355Z,3.17
2018-06-25T06:55:26.441Z,3.60
2018-06-25T06:57:54.151Z,3.47
2018-06-25T07:00:22.424Z,3.40
2018-06-25T07:02:50.222Z,3.00
2018-06-25T07:05:18.473Z,3.80
2018-06-25T07:07:48.067Z,3.20
2018-06-25T07:10:15.938Z,3.20
2018-06-25T07:12:44.099Z,3.00
2018-06-25T07:15:12.283Z,3.60
2018-06-25T07:17:40.847Z,3.20
2018-06-25T07:20:10.009Z,3.00
2018-06-25T07:22:38.939Z,3.00
2018-06-25T07:25:06.718Z,3.70
2018-06-25T07:27:35.719Z,2.93
2018-06-25T07:30:21.668Z,3.97
2018-06-25T07:32:49.424Z,2.93
2018-06-25T07:35:19.318Z,3.10
2018-06-25T07:37:49.934Z,3.10
2018-06-25T07:40:19.506Z,2.60
2018-06-25T07:42:47.281Z,2.83
2018-06-25T07:47:58.291Z,2.70
2018-06-25T07:53:19.256Z,2.70
2018-06-25T07:55:49.249Z,2.90
2018-06-25T07:58:17.334Z,2.90
2018-06-25T08:00:47.343Z,3.27
2018-06-25T08:03:16.072Z,9.23
2018-06-25T08:05:47.565Z,2.70
2018-06-25T08:08:15.248Z,2.90
2018-06-25T08:10:44.032Z,2.50
2018-06-25T08:13:11.751Z,2.57
2018-06-25T08:15:39.385Z,2.83
2018-06-25T08:18:07.160Z,2.57
2018-06-25T08:20:34.995Z,2.50
2018-06-25T08:23:03.982Z,3.57
2018-06-25T08:25:33.213Z,2.40
2018-06-25T08:28:01.403Z,2.30
2018-06-25T08:30:31.972Z,1.97
2018-06-25T08:32:59.999Z,2.27
2018-06-25T08:35:27.688Z,2.13
2018-06-25T08:37:55.423Z,2.23
2018-06-25T08:40:24.069Z,1.70
2018-06-25T08:42:53.044Z,1.60
2018-06-25T08:45:24.299Z,1.57
2018-06-25T08:47:53.781Z,1.57
2018-06-25T08:50:25.184Z,1.57
2018-06-25T08:53:00.907Z,1.57
2018-06-25T08:55:29.409Z,1.47
2018-06-25T08:57:57.344Z,1.67
2018-06-25T09:00:25.454Z,1.70
2018-06-25T09:02:53.901Z,1.40
2018-06-25T09:05:22.461Z,1.10
2018-06-25T09:07:56.392Z,1.30
2018-06-25T09:10:25.140Z,1.23
2018-06-25T09:12:54.026Z,1.40
2018-06-25T09:15:23.904Z,1.10
2018-06-25T09:17:53.118Z,1.10
2018-06-25T09:20:24.571Z,1.43
2018-06-25T09:22:53.187Z,4.90
2018-06-25T09:25:21.643Z,2.43
2018-06-25T09:28:01.572Z,1.50
2018-06-25T09:30:30.332Z,1.27
2018-06-25T09:32:59.220Z,1.47
2018-06-25T09:35:28.713Z,2.27
2018-06-25T09:38:15.834Z,1.40
2018-06-25T09:40:46.181Z,1.10
2018-06-25T09:43:13.989Z,1.13
2018-06-25T09:45:42.001Z,1.23
2018-06-25T09:48:09.858Z,1.20
2018-06-25T09:50:37.923Z,1.30
2018-06-25T09:53:05.810Z,1.20
2018-06-25T09:55:34.619Z,1.60
2018-06-25T09:58:03.390Z,1.10
2018-06-25T10:00:36.942Z,1.23
2018-06-25T10:03:13.413Z,1.10
2018-06-25T10:05:42.644Z,1.13
2018-06-25T10:08:11.476Z,1.10
2018-06-25T10:10:39.448Z,1.23
2018-06-25T10:13:07.250Z,1.20
2018-06-25T10:15:36.208Z,1.60
2018-06-25T10:18:04.197Z,1.40
2018-06-25T10:20:32.009Z,1.07
2018-06-25T10:23:00.341Z,1.17
2018-06-25T10:25:28.341Z,1.33
2018-06-25T10:27:56.123Z,1.53
2018-06-25T10:30:24.846Z,1.30
2018-06-25T10:32:52.610Z,1.10
2018-06-25T10:35:22.348Z,1.23
2018-06-25T10:37:50.846Z,1.40
2018-06-25T10:43:20.069Z,1.10
2018-06-25T10:45:55.340Z,1.30
2018-06-25T10:48:23.866Z,1.00
2018-06-25T10:50:51.675Z,1.03
2018-06-25T10:53:19.347Z,1.40
2018-06-25T10:55:47.052Z,1.23
2018-06-25T10:58:14.774Z,1.70
2018-06-25T11:00:43.784Z,1.20
2018-06-25T11:03:13.730Z,1.00
2018-06-25T11:05:42.373Z,1.30
2018-06-25T11:08:12.389Z,1.50
2018-06-25T11:10:40.475Z,1.10
2018-06-25T11:13:09.508Z,1.30
2018-06-25T11:15:38.026Z,1.50
2018-06-25T11:18:09.165Z,1.27
2018-06-25T11:20:51.501Z,1.40
2018-06-25T11:23:22.476Z,1.20
2018-06-25T11:25:52.123Z,1.30
2018-06-25T11:28:21.650Z,1.07
2018-06-25T11:30:58.957Z,1.43
2018-06-25T11:33:27.593Z,1.20
2018-06-25T11:35:57.079Z,1.10
2018-06-25T11:38:26.394Z,1.17
2018-06-25T11:40:54.806Z,1.17
2018-06-25T11:43:25.177Z,1.33
2018-06-25T11:46:01.179Z,1.10
2018-06-25T11:48:35.717Z,1.00
2018-06-25T11:51:05.195Z,1.47
2018-06-25T11:53:36.652Z,1.50
2018-06-25T11:56:05.580Z,1.00
2018-06-25T11:58:37.979Z,1.30
2018-06-25T12:01:10.167Z,1.03
2018-06-25T12:03:38.108Z,0.90
2018-06-25T12:06:06.332Z,1.47
2018-06-25T12:08:35.098Z,1.17
2018-06-25T12:11:04.689Z,1.67
2018-06-25T12:13:37.925Z,1.07
2018-06-25T12:16:07.214Z,1.00
2018-06-25T12:18:36.100Z,1.40
2018-06-25T12:21:06.919Z,1.10
2018-06-25T12:23:37.302Z,1.10
2018-06-25T12:26:05.752Z,1.13
2018-06-25T12:28:33.991Z,1.17
2018-06-25T12:31:05.256Z,0.97
2018-06-25T12:33:37.755Z,1.30
2018-06-25T12:36:11.142Z,1.20
2018-06-25T12:39:02.036Z,1.40
2018-06-25T12:41:33.121Z,1.20
2018-06-25T12:44:02.749Z,1.87
2018-06-25T12:46:56.154Z,1.40
2018-06-25T12:52:26.999Z,1.10
2018-06-25T12:54:57.386Z,1.00
2018-06-25T12:57:25.880Z,1.03
2018-06-25T12:59:58.527Z,1.40
2018-06-25T13:02:27.482Z,1.10
2018-06-25T13:04:57.667Z,2.13
2018-06-25T13:07:26.768Z,1.00
2018-06-25T13:09:57.843Z,1.07
2018-06-25T13:12:26.732Z,1.07
2018-06-25T13:14:57.836Z,1.03
2018-06-25T13:17:26.822Z,1.10
2018-06-25T13:19:57.117Z,1.00
2018-06-25T13:22:25.439Z,1.00
2018-06-25T13:24:54.055Z,1.47
2018-06-25T13:27:22.177Z,1.43
2018-06-25T13:30:02.466Z,1.27
2018-06-25T13:32:42.844Z,1.30
2018-06-25T13:35:11.046Z,1.47
2018-06-25T13:37:42.226Z,1.33
2018-06-25T13:40:10.610Z,1.10
2018-06-25T13:42:48.313Z,1.40
2018-06-25T13:45:16.397Z,1.13
2018-06-25T13:47:45.243Z,1.17
2018-06-25T13:50:13.376Z,1.10
2018-06-25T13:52:44.081Z,1.00
2018-06-25T13:55:11.972Z,1.40
2018-06-25T13:57:39.867Z,1.33
2018-06-25T14:00:07.777Z,1.30
2018-06-25T14:02:36.683Z,1.10
2018-06-25T14:05:08.961Z,1.60
2018-06-25T14:07:39.160Z,1.10
2018-06-25T14:10:07.171Z,1.03
2018-06-25T14:12:35.330Z,1.40
2018-06-25T14:15:04.212Z,1.10
2018-06-25T14:17:31.899Z,1.47
2018-06-25T14:19:59.816Z,1.00
2018-06-25T14:22:28.565Z,0.90
2018-06-25T14:25:01.471Z,1.47
2018-06-25T14:27:34.813Z,2.17
2018-06-25T14:30:09.603Z,1.80
2018-06-25T14:32:37.279Z,1.17
2018-06-25T14:35:10.749Z,1.17
2018-06-25T14:37:39.961Z,1.60
2018-06-25T14:40:07.597Z,1.40
2018-06-25T14:42:35.406Z,1.73
2018-06-25T14:45:03.312Z,1.27
2018-06-25T14:47:31.058Z,1.57
2018-06-25T14:49:58.729Z,1.00
2018-06-25T14:52:27.614Z,1.23
2018-06-25T14:54:55.479Z,1.50
2018-06-25T14:57:23.191Z,1.63
2018-06-25T14:59:50.923Z,1.10
2018-06-25T15:02:18.781Z,1.00
2018-06-25T15:04:46.423Z,1.83
2018-06-25T15:07:14.079Z,1.60
2018-06-25T15:09:41.693Z,1.10
2018-06-25T15:12:09.492Z,1.00
2018-06-25T15:14:37.201Z,1.47
2018-06-25T15:17:05.141Z,2.07
2018-06-25T15:19:32.913Z,1.20
2018-06-25T15:22:00.547Z,2.10
2018-06-25T15:24:28.195Z,1.17
2018-06-25T15:26:55.795Z,1.67
2018-06-25T15:29:23.999Z,1.67
2018-06-25T15:31:51.807Z,6.37
2018-06-25T15:34:20.693Z,9.87
2018-06-25T15:36:48.574Z,22.83
2018-06-25T15:39:16.449Z,1.10
2018-06-25T15:41:44.189Z,1.10
2018-06-25T15:44:12.972Z,1.10
2018-06-25T15:46:40.651Z,20.83
2018-06-25T15:49:09.267Z,8.47
2018-06-25T15:51:37.082Z,1.00
2018-06-25T15:54:05.944Z,13.70
2018-06-25T15:56:35.052Z,1.80
2018-06-25T15:59:04.121Z,14.30
2018-06-25T16:01:32.054Z,1.23
2018-06-25T16:04:00.099Z,1.63
2018-06-25T16:06:27.812Z,2.13
2018-06-25T16:08:55.551Z,1.10
2018-06-25T16:11:31.447Z,1.40
2018-06-25T16:13:59.095Z,4.20
2018-06-25T16:16:27.073Z,4.17
2018-06-25T16:18:55.869Z,18.70
2018-06-25T16:21:23.951Z,3.93
2018-06-25T16:23:51.702Z,5.90
2018-06-25T16:26:19.799Z,1.37
2018-06-25T16:28:48.996Z,1.20
2018-06-25T16:31:16.958Z,1.20
2018-06-25T16:33:48.210Z,3.43
2018-06-25T16:36:17.693Z,1.20
2018-06-25T16:38:49.143Z,6.37
2018-06-25T16:41:17.012Z,1.90
2018-06-25T16:43:46.221Z,1.27
2018-06-25T16:46:13.999Z,1.43
2018-06-25T16:48:43.831Z,1.57
2018-06-25T16:51:11.459Z,1.47
2018-06-25T16:53:39.223Z,1.40
2018-06-25T16:56:08.068Z,1.57
2018-06-25T16:58:36.799Z,1.70
2018-06-25T17:01:06.772Z,3.10
2018-06-25T17:03:35.174Z,2.00
2018-06-25T17:06:22.094Z,1.87
2018-06-25T17:08:50.822Z,1.97
2018-06-25T17:11:23.616Z,1.37
2018-06-25T17:13:51.446Z,6.43
2018-06-25T17:16:19.249Z,4.40
2018-06-25T17:18:53.689Z,2.80
2018-06-25T17:21:21.416Z,1.83
2018-06-25T17:23:49.239Z,1.90
2018-06-25T17:26:19.808Z,1.90
2018-06-25T17:28:47.801Z,2.17
2018-06-25T17:31:16.794Z,1.90
2018-06-25T17:33:45.109Z,2.83
2018-06-25T17:36:14.147Z,2.60
2018-06-25T17:38:41.902Z,2.50
2018-06-25T17:41:09.640Z,2.63
2018-06-25T17:43:37.745Z,2.57
2018-06-25T17:46:06.700Z,2.60
2018-06-25T17:48:34.548Z,3.50
2018-06-25T17:51:03.865Z,2.63
2018-06-25T17:53:32.762Z,3.50
2018-06-25T17:56:01.094Z,2.67
2018-06-25T17:58:29.082Z,2.90
2018-06-25T18:00:56.999Z,2.90
2018-06-25T18:03:24.715Z,2.87
2018-06-25T18:05:52.463Z,3.13
2018-06-25T18:08:20.171Z,2.73
2018-06-25T18:10:47.834Z,4.37
2018-06-25T18:13:15.908Z,3.77
2018-06-25T18:15:44.852Z,4.20
2018-06-25T18:18:12.615Z,4.20
2018-06-25T18:20:46.327Z,4.97
2018-06-25T18:23:14.029Z,4.13
2018-06-25T18:25:42.000Z,4.90
2018-06-25T18:28:13.244Z,4.90
2018-06-25T18:30:42.064Z,4.37
2018-06-25T18:33:12.560Z,4.40
2018-06-25T18:35:41.292Z,4.50
2018-06-25T18:38:08.985Z,4.60
2018-06-25T18:40:38.355Z,4.70
2018-06-25T18:43:07.430Z,4.73
2018-06-25T18:45:35.290Z,5.10
2018-06-25T18:48:05.832Z,6.60
2018-06-25T18:50:35.197Z,7.10
2018-06-25T18:53:04.339Z,5.53
2018-06-25T18:55:34.397Z,4.37
2018-06-25T18:58:02.328Z,6.80
2018-06-25T19:00:31.596Z,4.33
2018-06-25T19:03:04.725Z,4.57
2018-06-25T19:05:38.678Z,4.53
2018-06-25T19:08:07.500Z,4.00
2018-06-25T19:10:35.298Z,4.10
2018-06-25T19:13:03.102Z,3.90
2018-06-25T19:15:30.831Z,4.10
2018-06-25T19:18:00.070Z,4.00
2018-06-25T19:20:30.043Z,4.10
2018-06-25T19:22:59.399Z,4.10
2018-06-25T19:25:30.185Z,4.10
2018-06-25T19:28:16.466Z,4.33
2018-06-25T19:30:44.855Z,4.10
2018-06-25T19:33:12.594Z,4.50
2018-06-25T19:35:44.653Z,4.10
2018-06-25T19:38:13.368Z,3.70
2018-06-25T19:40:42.091Z,3.70
2018-06-25T19:43:10.107Z,4.30
2018-06-25T19:45:45.683Z,4.60
2018-06-25T19:48:16.339Z,4.47
2018-06-25T19:50:47.491Z,4.53
2018-06-25T19:53:16.589Z,5.13
2018-06-25T19:56:02.580Z,3.53
2018-06-25T19:58:30.478Z,4.00
2018-06-25T20:01:05.087Z,9.17
2018-06-25T20:03:34.747Z,17.60
2018-06-25T20:06:02.804Z,4.80
2018-06-25T20:08:30.481Z,8.30
2018-06-25T20:10:58.224Z,7.60
2018-06-25T20:13:25.904Z,5.57
2018-06-25T20:15:53.671Z,4.50
2018-06-25T20:18:21.392Z,8.60
2018-06-25T20:20:49.022Z,4.20
2018-06-25T20:23:19.068Z,5.47
2018-06-25T20:25:46.740Z,4.93
2018-06-25T20:28:14.596Z,4.60
2018-06-25T20:30:42.290Z,5.97
2018-06-25T20:33:10.813Z,4.53
2018-06-25T20:35:39.106Z,4.33
2018-06-25T20:38:08.848Z,3.77
2018-06-25T20:40:36.681Z,4.57
2018-06-25T20:43:04.250Z,4.60
2018-06-25T20:45:31.834Z,4.30
2018-06-25T20:47:59.436Z,4.73
2018-06-25T20:50:27.837Z,4.60
2018-06-25T20:52:55.480Z,4.83
2018-06-25T20:55:23.320Z,5.40
2018-06-25T20:57:50.922Z,4.43
2018-06-25T21:00:18.554Z,5.10
2018-06-25T21:02:46.273Z,4.93
2018-06-25T21:05:15.051Z,4.43
2018-06-25T21:07:47.574Z,4.80
2018-06-25T21:10:17.612Z,5.40
2018-06-25T21:12:45.619Z,4.80
2018-06-25T21:15:13.233Z,4.93
2018-06-25T21:17:40.983Z,5.40
2018-06-25T21:20:10.105Z,5.13
2018-06-25T21:22:38.010Z,5.50
2018-06-25T21:25:15.024Z,5.10
2018-06-25T21:27:43.531Z,4.80
2018-06-25T21:30:14.145Z,5.30
2018-06-25T21:32:44.132Z,5.50
2018-06-25T21:38:16.631Z,5.17
2018-06-25T21:40:48.018Z,5.13
2018-06-25T21:43:16.253Z,4.90
2018-06-25T21:45:43.987Z,5.20
2018-06-25T21:48:13.172Z,6.07
2018-06-25T21:50:40.863Z,4.73
2018-06-25T21:53:08.505Z,6.40
2018-06-25T21:55:36.089Z,4.80
2018-06-25T21:58:03.856Z,5.00
2018-06-25T22:00:42.787Z,5.70
2018-06-25T22:03:11.331Z,6.50
2018-06-25T22:05:40.095Z,6.80
2018-06-25T22:08:07.770Z,7.30
2018-06-25T22:10:35.431Z,6.80
2018-06-25T22:13:05.630Z,6.93
2018-06-25T22:15:33.363Z,7.50
2018-06-25T22:18:02.202Z,7.67
2018-06-25T22:20:30.586Z,7.50
2018-06-25T22:22:58.741Z,6.90
2018-06-25T22:25:27.117Z,7.87
2018-06-25T22:27:56.206Z,6.47
2018-06-25T22:30:24.080Z,6.60
2018-06-25T22:32:51.772Z,6.90
2018-06-25T22:35:19.466Z,6.90
2018-06-25T22:37:47.670Z,7.80
2018-06-25T22:40:15.467Z,7.57
2018-06-25T22:42:59.568Z,8.93
2018-06-25T22:45:28.540Z,12.50
2018-06-25T22:47:56.298Z,11.37
2018-06-25T22:53:18.038Z,10.10
2018-06-25T22:55:45.665Z,8.70
2018-06-25T22:58:13.242Z,8.80
2018-06-25T23:00:40.888Z,8.90
2018-06-25T23:03:08.450Z,8.57
2018-06-25T23:05:36.479Z,8.80
2018-06-25T23:08:04.111Z,8.87
2018-06-25T23:10:31.835Z,8.90
2018-06-25T23:13:00.114Z,8.73
2018-06-25T23:15:27.742Z,8.50
2018-06-25T23:17:55.958Z,8.57
2018-06-25T23:20:24.191Z,7.90
2018-06-25T23:22:53.411Z,8.30
2018-06-25T23:25:22.377Z,8.70
2018-06-25T23:27:50.518Z,8.37
2018-06-25T23:30:18.275Z,7.40
2018-06-25T23:32:45.966Z,8.40
2018-06-25T23:35:13.697Z,7.80
2018-06-25T23:37:41.328Z,9.03
2018-06-25T23:40:09.050Z,7.67
2018-06-25T23:42:37.233Z,8.53
2018-06-25T23:45:04.930Z,8.00
2018-06-25T23:47:32.955Z,7.70
2018-06-25T23:50:00.664Z,7.70
2018-06-25T23:52:28.469Z,8.27
2018-06-25T23:54:56.254Z,11.00
2018-06-25T23:57:24.266Z,8.97
2018-06-25T23:59:51.931Z,7.97
